sensor_id;sensor_type;location;lat;lon;timestamp;P1;durP1;ratioP1;P2;durP2;ratioP2
3645;SDS011;1839;48.060;11.662;2022-08-03T05:00:55;11.53;;;2.23;;
3645;SDS011;1839;48.060;11.662;2022-08-03T05:03:22;12.23;;;2.40;;
3645;SDS011;1839;48.060;11.662;2022-08-03T05:05:49;12.43;;;2.10;;
3645;SDS011;1839;48.060;11.662;2022-08-03T05:08:16;11.20;;;2.10;;
3645;SDS011;1839;48.060;11.662;2022-08-03T05:10:43;10.43;;;1.90;;
3645;SDS011;1839;48.060;11.662;2022-08-03T05:13:11;12.27;;;2.20;;
3645;SDS011;1839;48.060;11.662;2022-08-03T05:15:38;10.43;;;2.33;;
3645;SDS011;1839;48.060;11.662;2022-08-03T05:18:07;10.20;;;2.07;;
3645;SDS011;1839;48.060;11.662;2022-08-03T05:20:34;12.37;;;2.00;;
3645;SDS011;1839;48.060;11.662;2022-08-03T05:23:01;9.93;;;1.97;;
3645;SDS011;1839;48.060;11.662;2022-08-03T05:25:28;9.47;;;2.17;;
3645;SDS011;1839;48.060;11.662;2022-08-03T05:27:56;11.00;;;2.80;;
3645;SDS011;1839;48.060;11.662;2022-08-03T05:30:23;8.70;;;1.50;;
3645;SDS011;1839;48.060;11.662;2022-08-03T05:32:50;9.30;;;1.90;;
3645;SDS011;1839;48.060;11.662;2022-08-03T05:35:18;10.00;;;2.20;;
3645;SDS011;1839;48.060;11.662;2022-08-03T05:37:46;10.00;;;2.00;;
3645;SDS011;1839;48.060;11.662;2022-08-03T05:40:13;9.63;;;1.70;;
3645;SDS011;1839;48.060;11.662;2022-08-03T05:42:40;10.10;;;1.90;;
3645;SDS011;1839;48.060;11.662;2022-08-03T05:45:08;9.03;;;1.60;;
3645;SDS011;1839;48.060;11.662;2022-08-03T05:47:39;8.73;;;1.80;;
3645;SDS011;1839;48.060;11.662;2022-08-03T05:50:08;9.50;;;1.43;;
3645;SDS011;1839;48.060;11.662;2022-08-03T05:52:37;10.73;;;2.07;;
3645;SDS011;1839;48.060;11.662;2022-08-03T05:55:05;9.20;;;2.13;;
3645;SDS011;1839;48.060;11.662;2022-08-03T05:57:32;9.20;;;1.90;;
3645;SDS011;1839;48.060;11.662;2022-08-03T05:59:59;11.57;;;1.83;;
3645;SDS011;1839;48.060;11.662;2022-08-03T06:02:28;9.50;;;1.73;;
3645;SDS011;1839;48.060;11.662;2022-08-03T06:04:55;8.40;;;1.70;;
3645;SDS011;1839;48.060;11.662;2022-08-03T06:07:22;8.20;;;1.53;;
3645;SDS011;1839;48.060;11.662;2022-08-03T06:09:51;8.20;;;1.60;;
3645;SDS011;1839;48.060;11.662;2022-08-03T06:12:18;7.83;;;1.40;;
3645;SDS011;1839;48.060;11.662;2022-08-03T06:14:45;7.70;;;1.50;;
3645;SDS011;1839;48.060;11.662;2022-08-03T06:17:12;8.87;;;1.57;;
3645;SDS011;1839;48.060;11.662;2022-08-03T06:19:39;7.70;;;1.63;;
3645;SDS011;1839;48.060;11.662;2022-08-03T06:22:07;8.37;;;2.03;;
3645;SDS011;1839;48.060;11.662;2022-08-03T06:24:34;8.50;;;1.63;;
3645;SDS011;1839;48.060;11.662;2022-08-03T06:27:03;6.97;;;1.53;;
3645;SDS011;1839;48.060;11.662;2022-08-03T06:29:30;9.80;;;1.70;;
3645;SDS011;1839;48.060;11.662;2022-08-03T06:31:57;7.90;;;1.97;;
3645;SDS011;1839;48.060;11.662;2022-08-03T06:34:24;8.83;;;2.00;;
3645;SDS011;1839;48.060;11.662;2022-08-03T06:36:51;10.47;;;1.50;;
3645;SDS011;1839;48.060;11.662;2022-08-03T06:39:19;7.60;;;1.50;;
3645;SDS011;1839;48.060;11.662;2022-08-03T06:41:46;7.80;;;1.67;;
3645;SDS011;1839;48.060;11.662;2022-08-03T06:44:14;7.97;;;1.80;;
3645;SDS011;1839;48.060;11.662;2022-08-03T06:46:42;7.83;;;1.73;;
3645;SDS011;1839;48.060;11.662;2022-08-03T06:49:09;10.97;;;2.00;;
3645;SDS011;1839;48.060;11.662;2022-08-03T06:51:36;7.87;;;1.70;;
3645;SDS011;1839;48.060;11.662;2022-08-03T06:54:03;9.50;;;1.90;;
3645;SDS011;1839;48.060;11.662;2022-08-03T06:56:30;7.70;;;1.50;;
3645;SDS011;1839;48.060;11.662;2022-08-03T06:58:58;7.37;;;1.57;;
3645;SDS011;1839;48.060;11.662;2022-08-03T07:01:26;8.90;;;1.80;;
3645;SDS011;1839;48.060;11.662;2022-08-03T07:03:53;6.30;;;1.40;;
3645;SDS011;1839;48.060;11.662;2022-08-03T07:06:21;7.10;;;1.47;;
3645;SDS011;1839;48.060;11.662;2022-08-03T07:08:48;10.37;;;1.67;;
3645;SDS011;1839;48.060;11.662;2022-08-03T07:11:15;7.20;;;1.47;;
3645;SDS011;1839;48.060;11.662;2022-08-03T07:13:43;6.80;;;1.57;;
3645;SDS011;1839;48.060;11.662;2022-08-03T07:16:10;11.83;;;1.80;;
3645;SDS011;1839;48.060;11.662;2022-08-03T07:18:39;7.03;;;1.63;;
3645;SDS011;1839;48.060;11.662;2022-08-03T07:21:06;8.43;;;1.80;;
3645;SDS011;1839;48.060;11.662;2022-08-03T07:23:35;9.77;;;1.67;;
3645;SDS011;1839;48.060;11.662;2022-08-03T07:26:02;6.70;;;1.63;;
3645;SDS011;1839;48.060;11.662;2022-08-03T07:28:29;7.17;;;1.57;;
3645;SDS011;1839;48.060;11.662;2022-08-03T07:30:56;7.40;;;2.10;;
3645;SDS011;1839;48.060;11.662;2022-08-03T07:33:23;6.80;;;1.77;;
3645;SDS011;1839;48.060;11.662;2022-08-03T07:35:52;8.33;;;1.77;;
3645;SDS011;1839;48.060;11.662;2022-08-03T07:38:19;8.83;;;1.57;;
3645;SDS011;1839;48.060;11.662;2022-08-03T07:40:47;7.77;;;1.53;;
3645;SDS011;1839;48.060;11.662;2022-08-03T07:43:14;7.47;;;2.13;;
3645;SDS011;1839;48.060;11.662;2022-08-03T07:45:41;6.77;;;1.60;;
3645;SDS011;1839;48.060;11.662;2022-08-03T07:48:08;8.43;;;1.67;;
3645;SDS011;1839;48.060;11.662;2022-08-03T07:50:36;6.40;;;1.60;;
3645;SDS011;1839;48.060;11.662;2022-08-03T07:53:04;8.27;;;1.70;;
3645;SDS011;1839;48.060;11.662;2022-08-03T07:55:31;10.50;;;2.50;;
3645;SDS011;1839;48.060;11.662;2022-08-03T07:58:03;6.50;;;1.80;;
3645;SDS011;1839;48.060;11.662;2022-08-03T08:00:31;5.70;;;1.57;;
3645;SDS011;1839;48.060;11.662;2022-08-03T08:02:58;7.93;;;1.57;;
3645;SDS011;1839;48.060;11.662;2022-08-03T08:05:25;8.33;;;2.00;;
3645;SDS011;1839;48.060;11.662;2022-08-03T08:07:53;7.67;;;1.50;;
3645;SDS011;1839;48.060;11.662;2022-08-03T08:10:22;6.10;;;1.57;;
3645;SDS011;1839;48.060;11.662;2022-08-03T08:12:49;7.00;;;1.60;;
3645;SDS011;1839;48.060;11.662;2022-08-03T08:15:16;8.13;;;1.40;;
3645;SDS011;1839;48.060;11.662;2022-08-03T08:17:44;8.90;;;1.70;;
3645;SDS011;1839;48.060;11.662;2022-08-03T08:20:14;6.67;;;1.90;;
3645;SDS011;1839;48.060;11.662;2022-08-03T08:22:41;6.63;;;1.70;;
3645;SDS011;1839;48.060;11.662;2022-08-03T08:25:09;5.90;;;1.53;;
3645;SDS011;1839;48.060;11.662;2022-08-03T08:27:44;6.30;;;1.40;;
3645;SDS011;1839;48.060;11.662;2022-08-03T08:30:12;6.20;;;1.73;;
3645;SDS011;1839;48.060;11.662;2022-08-03T08:32:40;5.10;;;1.20;;
3645;SDS011;1839;48.060;11.662;2022-08-03T08:35:07;5.53;;;1.40;;
3645;SDS011;1839;48.060;11.662;2022-08-03T08:37:35;7.10;;;1.47;;
3645;SDS011;1839;48.060;11.662;2022-08-03T08:40:03;5.50;;;1.40;;
3645;SDS011;1839;48.060;11.662;2022-08-03T08:42:31;7.23;;;1.80;;
3645;SDS011;1839;48.060;11.662;2022-08-03T08:45:00;9.57;;;2.17;;
3645;SDS011;1839;48.060;11.662;2022-08-03T08:47:30;5.30;;;1.20;;
3645;SDS011;1839;48.060;11.662;2022-08-03T08:49:57;5.60;;;1.50;;
3645;SDS011;1839;48.060;11.662;2022-08-03T08:52:25;5.77;;;1.20;;
3645;SDS011;1839;48.060;11.662;2022-08-03T08:54:53;5.70;;;1.43;;
3645;SDS011;1839;48.060;11.662;2022-08-03T08:57:22;4.90;;;1.10;;
3645;SDS011;1839;48.060;11.662;2022-08-03T08:59:52;5.90;;;1.53;;
3645;SDS011;1839;48.060;11.662;2022-08-03T09:02:22;6.03;;;1.53;;
3645;SDS011;1839;48.060;11.662;2022-08-03T09:04:49;6.67;;;1.40;;
3645;SDS011;1839;48.060;11.662;2022-08-03T09:07:17;7.70;;;1.20;;
3645;SDS011;1839;48.060;11.662;2022-08-03T09:09:44;6.40;;;1.50;;
3645;SDS011;1839;48.060;11.662;2022-08-03T09:12:11;11.13;;;1.60;;
3645;SDS011;1839;48.060;11.662;2022-08-03T09:14:38;5.37;;;1.40;;
3645;SDS011;1839;48.060;11.662;2022-08-03T09:17:06;8.50;;;1.30;;
3645;SDS011;1839;48.060;11.662;2022-08-03T09:19:34;5.10;;;1.13;;
3645;SDS011;1839;48.060;11.662;2022-08-03T09:22:11;6.57;;;1.20;;
3645;SDS011;1839;48.060;11.662;2022-08-03T09:24:53;5.20;;;1.10;;
3645;SDS011;1839;48.060;11.662;2022-08-03T09:27:21;4.90;;;1.20;;
3645;SDS011;1839;48.060;11.662;2022-08-03T09:29:48;7.73;;;1.70;;
3645;SDS011;1839;48.060;11.662;2022-08-03T09:32:18;5.23;;;1.30;;
3645;SDS011;1839;48.060;11.662;2022-08-03T09:34:47;4.70;;;1.00;;
3645;SDS011;1839;48.060;11.662;2022-08-03T09:37:15;5.77;;;1.20;;
3645;SDS011;1839;48.060;11.662;2022-08-03T09:39:43;4.93;;;1.17;;
3645;SDS011;1839;48.060;11.662;2022-08-03T09:42:10;6.90;;;1.40;;
3645;SDS011;1839;48.060;11.662;2022-08-03T09:44:39;4.80;;;1.10;;
3645;SDS011;1839;48.060;11.662;2022-08-03T09:47:06;5.70;;;1.30;;
3645;SDS011;1839;48.060;11.662;2022-08-03T09:49:35;5.60;;;1.30;;
3645;SDS011;1839;48.060;11.662;2022-08-03T09:52:12;8.60;;;1.10;;
3645;SDS011;1839;48.060;11.662;2022-08-03T09:54:39;5.53;;;1.30;;
3645;SDS011;1839;48.060;11.662;2022-08-03T09:57:07;5.60;;;1.50;;
3645;SDS011;1839;48.060;11.662;2022-08-03T09:59:34;4.30;;;1.00;;
3645;SDS011;1839;48.060;11.662;2022-08-03T10:02:02;7.43;;;1.40;;
3645;SDS011;1839;48.060;11.662;2022-08-03T10:04:29;5.10;;;1.10;;
3645;SDS011;1839;48.060;11.662;2022-08-03T10:07:04;4.47;;;1.17;;
3645;SDS011;1839;48.060;11.662;2022-08-03T10:09:32;6.30;;;1.20;;
3645;SDS011;1839;48.060;11.662;2022-08-03T10:12:06;4.83;;;1.10;;
3645;SDS011;1839;48.060;11.662;2022-08-03T10:14:35;4.60;;;1.03;;
3645;SDS011;1839;48.060;11.662;2022-08-03T10:17:03;6.47;;;1.27;;
3645;SDS011;1839;48.060;11.662;2022-08-03T10:19:33;5.35;;;1.40;;
3645;SDS011;1839;48.060;11.662;2022-08-03T10:22:01;5.07;;;1.40;;
3645;SDS011;1839;48.060;11.662;2022-08-03T10:24:29;4.80;;;1.07;;
3645;SDS011;1839;48.060;11.662;2022-08-03T10:26:59;5.03;;;1.10;;
3645;SDS011;1839;48.060;11.662;2022-08-03T10:29:27;4.95;;;1.20;;
3645;SDS011;1839;48.060;11.662;2022-08-03T10:31:57;4.65;;;0.95;;
3645;SDS011;1839;48.060;11.662;2022-08-03T10:34:25;6.63;;;1.00;;
3645;SDS011;1839;48.060;11.662;2022-08-03T10:36:55;4.30;;;1.00;;
3645;SDS011;1839;48.060;11.662;2022-08-03T10:39:23;4.70;;;0.85;;
3645;SDS011;1839;48.060;11.662;2022-08-03T10:41:51;4.53;;;1.00;;
3645;SDS011;1839;48.060;11.662;2022-08-03T10:44:22;4.43;;;0.90;;
3645;SDS011;1839;48.060;11.662;2022-08-03T10:46:50;6.00;;;1.10;;
3645;SDS011;1839;48.060;11.662;2022-08-03T10:49:18;4.72;;;1.10;;
3645;SDS011;1839;48.060;11.662;2022-08-03T10:51:46;5.22;;;1.30;;
3645;SDS011;1839;48.060;11.662;2022-08-03T10:56:59;4.57;;;1.00;;
3645;SDS011;1839;48.060;11.662;2022-08-03T10:59:56;5.55;;;1.05;;
3645;SDS011;1839;48.060;11.662;2022-08-03T11:05:24;4.10;;;0.90;;
3645;SDS011;1839;48.060;11.662;2022-08-03T11:10:34;4.15;;;0.80;;
3645;SDS011;1839;48.060;11.662;2022-08-03T11:13:04;4.63;;;1.08;;
3645;SDS011;1839;48.060;11.662;2022-08-03T11:15:34;5.20;;;1.00;;
3645;SDS011;1839;48.060;11.662;2022-08-03T11:18:06;4.40;;;0.90;;
3645;SDS011;1839;48.060;11.662;2022-08-03T11:20:47;4.28;;;1.02;;
3645;SDS011;1839;48.060;11.662;2022-08-03T11:23:15;3.90;;;0.85;;
3645;SDS011;1839;48.060;11.662;2022-08-03T11:28:37;4.70;;;1.00;;
3645;SDS011;1839;48.060;11.662;2022-08-03T11:34:03;5.00;;;0.95;;
3645;SDS011;1839;48.060;11.662;2022-08-03T11:36:30;4.10;;;1.10;;
3645;SDS011;1839;48.060;11.662;2022-08-03T11:39:13;4.10;;;0.80;;
3645;SDS011;1839;48.060;11.662;2022-08-03T11:41:40;3.60;;;0.82;;
3645;SDS011;1839;48.060;11.662;2022-08-03T11:44:07;3.80;;;1.00;;
3645;SDS011;1839;48.060;11.662;2022-08-03T11:46:35;12.90;;;0.90;;
3645;SDS011;1839;48.060;11.662;2022-08-03T11:49:05;3.25;;;0.80;;
3645;SDS011;1839;48.060;11.662;2022-08-03T11:51:32;2.78;;;0.80;;
3645;SDS011;1839;48.060;11.662;2022-08-03T11:54:01;3.03;;;0.90;;
3645;SDS011;1839;48.060;11.662;2022-08-03T11:56:42;3.33;;;0.70;;
3645;SDS011;1839;48.060;11.662;2022-08-03T11:59:09;3.20;;;0.90;;
3645;SDS011;1839;48.060;11.662;2022-08-03T12:01:36;3.08;;;0.80;;
3645;SDS011;1839;48.060;11.662;2022-08-03T12:04:05;2.88;;;0.90;;
3645;SDS011;1839;48.060;11.662;2022-08-03T12:06:34;3.10;;;0.90;;
3645;SDS011;1839;48.060;11.662;2022-08-03T12:09:18;3.70;;;0.90;;
3645;SDS011;1839;48.060;11.662;2022-08-03T12:11:46;2.90;;;0.90;;
3645;SDS011;1839;48.060;11.662;2022-08-03T12:14:15;2.80;;;0.80;;
3645;SDS011;1839;48.060;11.662;2022-08-03T12:16:45;6.80;;;0.90;;
3645;SDS011;1839;48.060;11.662;2022-08-03T12:19:14;2.45;;;0.70;;
3645;SDS011;1839;48.060;11.662;2022-08-03T12:21:44;2.70;;;0.70;;
3645;SDS011;1839;48.060;11.662;2022-08-03T12:24:12;2.80;;;0.70;;
3645;SDS011;1839;48.060;11.662;2022-08-03T12:26:43;2.63;;;0.75;;
3645;SDS011;1839;48.060;11.662;2022-08-03T12:29:15;3.35;;;0.80;;
3645;SDS011;1839;48.060;11.662;2022-08-03T12:31:42;5.20;;;1.00;;
3645;SDS011;1839;48.060;11.662;2022-08-03T12:34:09;4.05;;;0.80;;
3645;SDS011;1839;48.060;11.662;2022-08-03T12:36:48;2.67;;;0.75;;
3645;SDS011;1839;48.060;11.662;2022-08-03T12:39:16;2.63;;;0.73;;
3645;SDS011;1839;48.060;11.662;2022-08-03T12:41:43;3.60;;;0.90;;
3645;SDS011;1839;48.060;11.662;2022-08-03T12:44:10;2.50;;;0.60;;
3645;SDS011;1839;48.060;11.662;2022-08-03T12:46:38;2.40;;;0.77;;
3645;SDS011;1839;48.060;11.662;2022-08-03T12:49:06;3.55;;;0.70;;
3645;SDS011;1839;48.060;11.662;2022-08-03T12:51:35;3.72;;;0.90;;
3645;SDS011;1839;48.060;11.662;2022-08-03T12:54:04;4.75;;;0.73;;
3645;SDS011;1839;48.060;11.662;2022-08-03T12:56:32;2.53;;;0.85;;
3645;SDS011;1839;48.060;11.662;2022-08-03T12:58:59;2.90;;;0.88;;
3645;SDS011;1839;48.060;11.662;2022-08-03T13:01:34;2.67;;;0.85;;
3645;SDS011;1839;48.060;11.662;2022-08-03T13:04:02;3.35;;;0.88;;
3645;SDS011;1839;48.060;11.662;2022-08-03T13:06:30;3.80;;;0.73;;
3645;SDS011;1839;48.060;11.662;2022-08-03T13:09:01;2.60;;;0.75;;
3645;SDS011;1839;48.060;11.662;2022-08-03T13:11:29;2.60;;;0.80;;
3645;SDS011;1839;48.060;11.662;2022-08-03T13:13:57;2.53;;;0.70;;
3645;SDS011;1839;48.060;11.662;2022-08-03T13:16:24;4.97;;;0.80;;
3645;SDS011;1839;48.060;11.662;2022-08-03T13:18:51;2.10;;;0.70;;
3645;SDS011;1839;48.060;11.662;2022-08-03T13:21:20;2.92;;;0.65;;
3645;SDS011;1839;48.060;11.662;2022-08-03T13:23:47;2.95;;;0.70;;
3645;SDS011;1839;48.060;11.662;2022-08-03T13:26:14;2.10;;;0.70;;
3645;SDS011;1839;48.060;11.662;2022-08-03T13:28:43;2.25;;;0.70;;
3645;SDS011;1839;48.060;11.662;2022-08-03T13:31:10;2.67;;;0.80;;
3645;SDS011;1839;48.060;11.662;2022-08-03T13:33:37;3.70;;;0.98;;
3645;SDS011;1839;48.060;11.662;2022-08-03T13:36:05;2.78;;;0.60;;
3645;SDS011;1839;48.060;11.662;2022-08-03T13:38:32;2.92;;;0.88;;
3645;SDS011;1839;48.060;11.662;2022-08-03T13:41:00;2.65;;;0.77;;
3645;SDS011;1839;48.060;11.662;2022-08-03T13:43:28;3.50;;;0.80;;
3645;SDS011;1839;48.060;11.662;2022-08-03T13:45:56;2.40;;;0.80;;
3645;SDS011;1839;48.060;11.662;2022-08-03T13:48:24;3.95;;;0.98;;
3645;SDS011;1839;48.060;11.662;2022-08-03T13:50:51;2.33;;;0.70;;
3645;SDS011;1839;48.060;11.662;2022-08-03T13:53:18;2.90;;;0.77;;
3645;SDS011;1839;48.060;11.662;2022-08-03T13:55:45;2.70;;;0.70;;
3645;SDS011;1839;48.060;11.662;2022-08-03T13:58:12;2.97;;;0.80;;
3645;SDS011;1839;48.060;11.662;2022-08-03T14:00:39;2.25;;;0.68;;
3645;SDS011;1839;48.060;11.662;2022-08-03T14:03:08;2.65;;;0.70;;
3645;SDS011;1839;48.060;11.662;2022-08-03T14:05:36;3.40;;;0.75;;
3645;SDS011;1839;48.060;11.662;2022-08-03T14:08:03;2.28;;;0.80;;
3645;SDS011;1839;48.060;11.662;2022-08-03T14:10:32;2.20;;;0.70;;
3645;SDS011;1839;48.060;11.662;2022-08-03T14:12:59;2.80;;;0.70;;
3645;SDS011;1839;48.060;11.662;2022-08-03T14:15:26;2.45;;;0.80;;
3645;SDS011;1839;48.060;11.662;2022-08-03T14:17:54;1.90;;;0.70;;
3645;SDS011;1839;48.060;11.662;2022-08-03T14:20:22;4.90;;;0.60;;
3645;SDS011;1839;48.060;11.662;2022-08-03T14:22:49;2.40;;;0.80;;
3645;SDS011;1839;48.060;11.662;2022-08-03T14:25:17;2.75;;;0.68;;
3645;SDS011;1839;48.060;11.662;2022-08-03T14:27:44;2.40;;;0.73;;
3645;SDS011;1839;48.060;11.662;2022-08-03T14:30:11;2.47;;;0.80;;
3645;SDS011;1839;48.060;11.662;2022-08-03T14:32:39;4.97;;;0.88;;
3645;SDS011;1839;48.060;11.662;2022-08-03T14:35:06;3.65;;;0.60;;
3645;SDS011;1839;48.060;11.662;2022-08-03T14:37:35;2.90;;;0.90;;
3645;SDS011;1839;48.060;11.662;2022-08-03T14:40:03;2.25;;;0.80;;
3645;SDS011;1839;48.060;11.662;2022-08-03T14:42:30;2.80;;;0.80;;
3645;SDS011;1839;48.060;11.662;2022-08-03T14:44:57;2.08;;;0.70;;
3645;SDS011;1839;48.060;11.662;2022-08-03T14:47:24;1.98;;;0.60;;
3645;SDS011;1839;48.060;11.662;2022-08-03T14:49:52;2.10;;;0.63;;
3645;SDS011;1839;48.060;11.662;2022-08-03T14:52:19;10.65;;;0.75;;
3645;SDS011;1839;48.060;11.662;2022-08-03T14:54:47;1.98;;;0.70;;
3645;SDS011;1839;48.060;11.662;2022-08-03T14:57:15;1.95;;;0.60;;
3645;SDS011;1839;48.060;11.662;2022-08-03T14:59:42;2.22;;;0.63;;
3645;SDS011;1839;48.060;11.662;2022-08-03T15:02:09;3.42;;;0.77;;
3645;SDS011;1839;48.060;11.662;2022-08-03T15:04:36;1.85;;;0.60;;
3645;SDS011;1839;48.060;11.662;2022-08-03T15:07:03;1.80;;;0.70;;
3645;SDS011;1839;48.060;11.662;2022-08-03T15:09:31;2.00;;;0.60;;
3645;SDS011;1839;48.060;11.662;2022-08-03T15:11:59;1.90;;;0.60;;
3645;SDS011;1839;48.060;11.662;2022-08-03T15:14:26;2.40;;;0.68;;
3645;SDS011;1839;48.060;11.662;2022-08-03T15:16:54;3.97;;;0.70;;
3645;SDS011;1839;48.060;11.662;2022-08-03T15:19:21;2.85;;;0.60;;
3645;SDS011;1839;48.060;11.662;2022-08-03T15:21:48;2.47;;;0.77;;
3645;SDS011;1839;48.060;11.662;2022-08-03T15:24:15;2.17;;;0.65;;
3645;SDS011;1839;48.060;11.662;2022-08-03T15:26:42;2.85;;;0.80;;
3645;SDS011;1839;48.060;11.662;2022-08-03T15:29:11;2.15;;;0.70;;
3645;SDS011;1839;48.060;11.662;2022-08-03T15:31:38;2.83;;;0.80;;
3645;SDS011;1839;48.060;11.662;2022-08-03T15:34:05;2.80;;;0.70;;
3645;SDS011;1839;48.060;11.662;2022-08-03T15:36:32;2.30;;;0.80;;
3645;SDS011;1839;48.060;11.662;2022-08-03T15:39:00;2.17;;;0.80;;
3645;SDS011;1839;48.060;11.662;2022-08-03T15:41:27;2.00;;;0.70;;
3645;SDS011;1839;48.060;11.662;2022-08-03T15:43:54;2.50;;;0.70;;
3645;SDS011;1839;48.060;11.662;2022-08-03T15:46:23;2.92;;;0.80;;
3645;SDS011;1839;48.060;11.662;2022-08-03T15:48:50;2.70;;;0.70;;
3645;SDS011;1839;48.060;11.662;2022-08-03T15:51:17;5.25;;;0.80;;
3645;SDS011;1839;48.060;11.662;2022-08-03T15:53:44;4.05;;;1.15;;
3645;SDS011;1839;48.060;11.662;2022-08-03T15:56:11;4.00;;;0.90;;
3645;SDS011;1839;48.060;11.662;2022-08-03T15:58:39;4.38;;;1.08;;
3645;SDS011;1839;48.060;11.662;2022-08-03T16:01:06;6.72;;;1.42;;
3645;SDS011;1839;48.060;11.662;2022-08-03T16:03:35;5.28;;;1.10;;
3645;SDS011;1839;48.060;11.662;2022-08-03T16:06:02;6.28;;;1.10;;
3645;SDS011;1839;48.060;11.662;2022-08-03T16:08:30;5.22;;;1.50;;
3645;SDS011;1839;48.060;11.662;2022-08-03T16:10:58;6.28;;;1.27;;
3645;SDS011;1839;48.060;11.662;2022-08-03T16:13:25;4.90;;;1.40;;
3645;SDS011;1839;48.060;11.662;2022-08-03T16:15:53;6.00;;;1.25;;
3645;SDS011;1839;48.060;11.662;2022-08-03T16:18:20;5.22;;;1.42;;
3645;SDS011;1839;48.060;11.662;2022-08-03T16:20:48;4.80;;;1.10;;
3645;SDS011;1839;48.060;11.662;2022-08-03T16:23:16;7.95;;;1.38;;
3645;SDS011;1839;48.060;11.662;2022-08-03T16:25:44;4.72;;;1.10;;
3645;SDS011;1839;48.060;11.662;2022-08-03T16:28:11;5.97;;;1.38;;
3645;SDS011;1839;48.060;11.662;2022-08-03T16:30:39;6.10;;;1.50;;
3645;SDS011;1839;48.060;11.662;2022-08-03T16:33:06;24.27;;;11.65;;
3645;SDS011;1839;48.060;11.662;2022-08-03T16:35:33;16.45;;;7.50;;
3645;SDS011;1839;48.060;11.662;2022-08-03T16:38:02;12.93;;;7.18;;
3645;SDS011;1839;48.060;11.662;2022-08-03T16:40:29;14.57;;;6.72;;
3645;SDS011;1839;48.060;11.662;2022-08-03T16:42:57;19.25;;;10.65;;
3645;SDS011;1839;48.060;11.662;2022-08-03T16:45:24;8.20;;;2.58;;
3645;SDS011;1839;48.060;11.662;2022-08-03T16:47:52;8.57;;;2.97;;
3645;SDS011;1839;48.060;11.662;2022-08-03T16:50:19;9.13;;;4.20;;
3645;SDS011;1839;48.060;11.662;2022-08-03T16:52:46;9.65;;;3.65;;
3645;SDS011;1839;48.060;11.662;2022-08-03T16:55:15;7.60;;;2.33;;
3645;SDS011;1839;48.060;11.662;2022-08-03T16:57:42;6.90;;;2.60;;
3645;SDS011;1839;48.060;11.662;2022-08-03T17:00:09;5.97;;;1.65;;
3645;SDS011;1839;48.060;11.662;2022-08-03T17:02:37;9.37;;;3.33;;
3645;SDS011;1839;48.060;11.662;2022-08-03T17:05:06;8.40;;;3.47;;
3645;SDS011;1839;48.060;11.662;2022-08-03T17:07:34;8.10;;;2.33;;
3645;SDS011;1839;48.060;11.662;2022-08-03T17:10:01;10.77;;;3.17;;
3645;SDS011;1839;48.060;11.662;2022-08-03T17:12:30;10.33;;;4.20;;
3645;SDS011;1839;48.060;11.662;2022-08-03T17:14:57;11.30;;;5.07;;
3645;SDS011;1839;48.060;11.662;2022-08-03T17:17:26;14.67;;;7.53;;
3645;SDS011;1839;48.060;11.662;2022-08-03T17:19:53;24.97;;;12.70;;
3645;SDS011;1839;48.060;11.662;2022-08-03T17:22:23;15.70;;;7.27;;
3645;SDS011;1839;48.060;11.662;2022-08-03T17:24:51;11.10;;;5.03;;
3645;SDS011;1839;48.060;11.662;2022-08-03T17:27:19;10.67;;;4.73;;
3645;SDS011;1839;48.060;11.662;2022-08-03T17:29:48;9.80;;;4.30;;
3645;SDS011;1839;48.060;11.662;2022-08-03T17:32:22;8.50;;;3.23;;
3645;SDS011;1839;48.060;11.662;2022-08-03T17:34:49;8.93;;;3.23;;
3645;SDS011;1839;48.060;11.662;2022-08-03T17:37:17;8.80;;;1.70;;
3645;SDS011;1839;48.060;11.662;2022-08-03T17:39:46;6.30;;;2.00;;
3645;SDS011;1839;48.060;11.662;2022-08-03T17:42:13;7.03;;;2.20;;
3645;SDS011;1839;48.060;11.662;2022-08-03T17:44:41;6.70;;;1.87;;
3645;SDS011;1839;48.060;11.662;2022-08-03T17:47:10;7.67;;;1.53;;
3645;SDS011;1839;48.060;11.662;2022-08-03T17:49:37;8.60;;;2.50;;
3645;SDS011;1839;48.060;11.662;2022-08-03T17:52:06;11.90;;;5.63;;
3645;SDS011;1839;48.060;11.662;2022-08-03T17:54:37;9.43;;;3.37;;
3645;SDS011;1839;48.060;11.662;2022-08-03T17:57:07;8.40;;;2.20;;
3645;SDS011;1839;48.060;11.662;2022-08-03T17:59:36;11.43;;;2.23;;
3645;SDS011;1839;48.060;11.662;2022-08-03T18:02:08;7.90;;;1.80;;
3645;SDS011;1839;48.060;11.662;2022-08-03T18:05:09;6.90;;;1.60;;
3645;SDS011;1839;48.060;11.662;2022-08-03T18:07:39;7.10;;;1.90;;
3645;SDS011;1839;48.060;11.662;2022-08-03T18:10:07;6.73;;;2.10;;
3645;SDS011;1839;48.060;11.662;2022-08-03T18:12:39;8.53;;;2.30;;
3645;SDS011;1839;48.060;11.662;2022-08-03T18:15:08;15.47;;;6.90;;
3645;SDS011;1839;48.060;11.662;2022-08-03T18:17:39;16.10;;;7.40;;
3645;SDS011;1839;48.060;11.662;2022-08-03T18:20:07;12.30;;;4.20;;
3645;SDS011;1839;48.060;11.662;2022-08-03T18:22:36;10.37;;;4.90;;
3645;SDS011;1839;48.060;11.662;2022-08-03T18:25:05;16.20;;;8.50;;
3645;SDS011;1839;48.060;11.662;2022-08-03T18:27:33;12.63;;;7.00;;
3645;SDS011;1839;48.060;11.662;2022-08-03T18:30:01;14.53;;;6.80;;
3645;SDS011;1839;48.060;11.662;2022-08-03T18:32:28;10.60;;;5.00;;
3645;SDS011;1839;48.060;11.662;2022-08-03T18:34:55;16.70;;;7.47;;
3645;SDS011;1839;48.060;11.662;2022-08-03T18:37:23;9.57;;;4.70;;
3645;SDS011;1839;48.060;11.662;2022-08-03T18:39:52;8.63;;;2.90;;
3645;SDS011;1839;48.060;11.662;2022-08-03T18:42:20;9.10;;;3.10;;
3645;SDS011;1839;48.060;11.662;2022-08-03T18:44:47;10.70;;;4.00;;
3645;SDS011;1839;48.060;11.662;2022-08-03T18:47:22;9.87;;;3.43;;
3645;SDS011;1839;48.060;11.662;2022-08-03T18:49:59;8.63;;;2.93;;
3645;SDS011;1839;48.060;11.662;2022-08-03T18:52:30;7.80;;;3.10;;
3645;SDS011;1839;48.060;11.662;2022-08-03T18:55:05;11.70;;;3.50;;
3645;SDS011;1839;48.060;11.662;2022-08-03T18:57:36;8.60;;;2.73;;
3645;SDS011;1839;48.060;11.662;2022-08-03T19:00:04;10.30;;;3.50;;
3645;SDS011;1839;48.060;11.662;2022-08-03T19:02:34;9.17;;;2.90;;
3645;SDS011;1839;48.060;11.662;2022-08-03T19:05:03;9.93;;;2.90;;
3645;SDS011;1839;48.060;11.662;2022-08-03T19:07:30;11.10;;;2.67;;
3645;SDS011;1839;48.060;11.662;2022-08-03T19:09:59;10.00;;;3.00;;
3645;SDS011;1839;48.060;11.662;2022-08-03T19:12:30;8.63;;;2.50;;
3645;SDS011;1839;48.060;11.662;2022-08-03T19:15:00;10.57;;;2.53;;
3645;SDS011;1839;48.060;11.662;2022-08-03T19:17:27;9.33;;;2.50;;
3645;SDS011;1839;48.060;11.662;2022-08-03T19:19:56;16.90;;;3.40;;
3645;SDS011;1839;48.060;11.662;2022-08-03T19:22:23;10.80;;;2.53;;
3645;SDS011;1839;48.060;11.662;2022-08-03T19:24:51;11.53;;;2.90;;
3645;SDS011;1839;48.060;11.662;2022-08-03T19:27:20;12.23;;;3.00;;
3645;SDS011;1839;48.060;11.662;2022-08-03T19:29:49;9.83;;;3.07;;
3645;SDS011;1839;48.060;11.662;2022-08-03T19:32:16;9.77;;;2.57;;
3645;SDS011;1839;48.060;11.662;2022-08-03T19:34:44;17.13;;;3.60;;
3645;SDS011;1839;48.060;11.662;2022-08-03T19:37:12;10.30;;;2.70;;
3645;SDS011;1839;48.060;11.662;2022-08-03T19:39:39;11.00;;;2.70;;
3645;SDS011;1839;48.060;11.662;2022-08-03T19:42:07;12.17;;;3.10;;
3645;SDS011;1839;48.060;11.662;2022-08-03T19:44:36;10.80;;;3.10;;
3645;SDS011;1839;48.060;11.662;2022-08-03T19:47:07;12.17;;;3.00;;
3645;SDS011;1839;48.060;11.662;2022-08-03T19:49:35;11.87;;;2.77;;
3645;SDS011;1839;48.060;11.662;2022-08-03T19:52:03;10.07;;;2.87;;
3645;SDS011;1839;48.060;11.662;2022-08-03T19:54:34;11.67;;;2.87;;
3645;SDS011;1839;48.060;11.662;2022-08-03T19:57:02;11.23;;;2.57;;
3645;SDS011;1839;48.060;11.662;2022-08-03T19:59:30;15.67;;;2.60;;
3645;SDS011;1839;48.060;11.662;2022-08-03T20:01:59;10.23;;;3.00;;
3645;SDS011;1839;48.060;11.662;2022-08-03T20:04:29;11.00;;;2.60;;
3645;SDS011;1839;48.060;11.662;2022-08-03T20:06:57;12.70;;;3.43;;
3645;SDS011;1839;48.060;11.662;2022-08-03T20:09:24;12.00;;;2.93;;
3645;SDS011;1839;48.060;11.662;2022-08-03T20:11:52;22.80;;;3.23;;
3645;SDS011;1839;48.060;11.662;2022-08-03T20:14:19;11.80;;;3.10;;
3645;SDS011;1839;48.060;11.662;2022-08-03T20:16:47;12.63;;;2.70;;
3645;SDS011;1839;48.060;11.662;2022-08-03T20:19:14;11.43;;;2.90;;